PWSweather.com
Personal Weather Stations
Station Observations
GRD01
Warsaw, LesznoPL 05-084

WarsawLesznoPL 05-084

Lat: 52.257404, Lon: 20.564847

Elevation: 298

Station Type: WH3080

http://pogoda.kampinos.waw.pl

High Low Average
Temperature 89.4°F31.9°C 66.9°F19.4°C 77.3°F25.2°C
Dew Point 65.5°F18.6°C 54.9°F12.7°C 59.3°F15.2°C
Winds 11.4 mph 18.3 kmh Calm Calm 5.0 mph SE8.0 kmh SE
Wind Gusts 17.4 mph28.0 kmh 2.2 mph3.5 kmh 10.0 mph16.1 kmh
Humidity 89% 38% 56%
Pressure 30.61 in1036.6 mb 30.48 in1032.2 mb -
Precipitation 0.06 in1.5 mm - -
Hour Temp Dew Point Humidity Winds Wind Gusts Pressure Precip Precip Rate Daily Precip Total
12:00 AM 72.0°F22.2°C 57.8°F14.3°C 61% 5.4 mph ESE8.7 kmh ESE 9.2 mph14.8 kmh 30.61 in1036.6 mb 0.00 in0.0 mm 0.00 in0.0 mm 0.00 in0.0 mm
12:05 AM 72.1°F22.3°C 57.9°F14.4°C 61% 5.4 mph E8.7 kmh E 6.9 mph11.1 kmh 30.16 in1021.3 mb 0.00 in0.0 mm 0.00 in0.0 mm 0.00 in0.0 mm
12:15 AM 71.6°F22.0°C 57.4°F14.1°C 61% 5.4 mph ESE8.7 kmh ESE 9.2 mph14.8 kmh 30.61 in1036.6 mb 0.00 in0.0 mm 0.00 in0.0 mm 0.00 in0.0 mm
12:30 AM 71.2°F21.8°C 57.5°F14.2°C 62% 8.3 mph ESE13.4 kmh ESE 10.7 mph17.2 kmh 30.60 in1036.2 mb 0.00 in0.0 mm 0.00 in0.0 mm 0.00 in0.0 mm
12:35 AM 71.4°F21.9°C 57.7°F14.3°C 62% 5.4 mph SE8.7 kmh SE 6.0 mph9.7 kmh 30.16 in1021.3 mb 0.00 in0.0 mm 0.00 in0.0 mm 0.00 in0.0 mm
12:45 AM 71.1°F21.7°C 57.4°F14.1°C 62% 6.0 mph SE9.7 kmh SE 11.4 mph18.3 kmh 30.61 in1036.6 mb 0.00 in0.0 mm 0.00 in0.0 mm 0.00 in0.0 mm
01:00 AM 70.9°F21.6°C 57.2°F14.0°C 62% 3.8 mph ESE6.1 kmh ESE 11.4 mph18.3 kmh 30.60 in1036.2 mb 0.00 in0.0 mm 0.00 in0.0 mm 0.00 in0.0 mm
01:05 AM 70.9°F21.6°C 57.2°F14.0°C 62% 3.8 mph SE6.1 kmh SE 5.4 mph8.7 kmh 30.16 in1021.3 mb 0.00 in0.0 mm 0.00 in0.0 mm 0.00 in0.0 mm
01:15 AM 70.3°F21.3°C 57.1°F13.9°C 63% 3.1 mph ESE5.0 kmh ESE 9.2 mph14.8 kmh 30.61 in1036.6 mb 0.00 in0.0 mm 0.00 in0.0 mm 0.00 in0.0 mm
01:30 AM 70.0°F21.1°C 56.8°F13.8°C 63% 4.5 mph ESE7.2 kmh ESE 7.6 mph12.2 kmh 30.61 in1036.6 mb 0.00 in0.0 mm 0.00 in0.0 mm 0.00 in0.0 mm
01:35 AM 70.0°F21.1°C 56.8°F13.8°C 63% 3.8 mph E6.1 kmh E 4.5 mph7.2 kmh 30.16 in1021.3 mb 0.00 in0.0 mm 0.00 in0.0 mm 0.00 in0.0 mm
01:45 AM 69.6°F20.9°C 56.9°F13.8°C 64% 3.8 mph ESE6.1 kmh ESE 9.2 mph14.8 kmh 30.61 in1036.6 mb 0.00 in0.0 mm 0.00 in0.0 mm 0.00 in0.0 mm
02:00 AM 69.4°F20.8°C 56.7°F13.7°C 64% 5.4 mph E8.7 kmh E 9.8 mph15.8 kmh 30.61 in1036.6 mb 0.00 in0.0 mm 0.00 in0.0 mm 0.00 in0.0 mm
02:05 AM 69.4°F20.8°C 56.7°F13.7°C 64% 5.4 mph E8.7 kmh E 6.0 mph9.7 kmh 30.16 in1021.3 mb 0.00 in0.0 mm 0.00 in0.0 mm 0.00 in0.0 mm
02:15 AM 69.1°F20.6°C 56.8°F13.8°C 65% 3.8 mph E6.1 kmh E 7.6 mph12.2 kmh 30.61 in1036.6 mb 0.00 in0.0 mm 0.00 in0.0 mm 0.00 in0.0 mm
02:30 AM 68.7°F20.4°C 56.5°F13.6°C 65% 6.0 mph ESE9.7 kmh ESE 8.3 mph13.4 kmh 30.61 in1036.6 mb 0.00 in0.0 mm 0.00 in0.0 mm 0.00 in0.0 mm
02:35 AM 68.7°F20.4°C 56.5°F13.6°C 65% 3.8 mph E6.1 kmh E 4.5 mph7.2 kmh 30.16 in1021.3 mb 0.00 in0.0 mm 0.00 in0.0 mm 0.00 in0.0 mm
02:45 AM 68.5°F20.3°C 56.7°F13.7°C 66% 4.5 mph E7.2 kmh E 8.3 mph13.4 kmh 30.60 in1036.2 mb 0.00 in0.0 mm 0.00 in0.0 mm 0.00 in0.0 mm
03:00 AM 68.2°F20.1°C 56.8°F13.8°C 67% 4.5 mph ESE7.2 kmh ESE 7.6 mph12.2 kmh 30.61 in1036.6 mb 0.00 in0.0 mm 0.00 in0.0 mm 0.00 in0.0 mm
03:05 AM 68.2°F20.1°C 56.4°F13.6°C 66% 5.4 mph E8.7 kmh E 6.9 mph11.1 kmh 30.16 in1021.3 mb 0.00 in0.0 mm 0.00 in0.0 mm 0.00 in0.0 mm
03:15 AM 67.8°F19.9°C 56.5°F13.6°C 67% 6.0 mph E9.7 kmh E 7.6 mph12.2 kmh 30.59 in1035.9 mb 0.00 in0.0 mm 0.00 in0.0 mm 0.00 in0.0 mm
03:30 AM 67.6°F19.8°C 56.7°F13.7°C 68% 4.5 mph E7.2 kmh E 10.7 mph17.2 kmh 30.59 in1035.9 mb 0.00 in0.0 mm 0.00 in0.0 mm 0.00 in0.0 mm
03:35 AM 67.6°F19.8°C 56.7°F13.7°C 68% 7.6 mph SE12.2 kmh SE 10.7 mph17.2 kmh 30.15 in1021.0 mb 0.00 in0.0 mm 0.00 in0.0 mm 0.00 in0.0 mm
03:45 AM 67.5°F19.7°C 56.5°F13.6°C 68% 3.1 mph E5.0 kmh E 9.8 mph15.8 kmh 30.59 in1035.9 mb 0.00 in0.0 mm 0.00 in0.0 mm 0.00 in0.0 mm
04:00 AM 67.5°F19.7°C 56.5°F13.6°C 68% 6.0 mph ESE9.7 kmh ESE 8.3 mph13.4 kmh 30.59 in1035.9 mb 0.00 in0.0 mm 0.00 in0.0 mm 0.00 in0.0 mm
04:05 AM 67.5°F19.7°C 56.5°F13.6°C 68% 6.0 mph SE9.7 kmh SE 7.6 mph12.2 kmh 30.14 in1020.7 mb 0.00 in0.0 mm 0.00 in0.0 mm 0.00 in0.0 mm
04:15 AM 67.3°F19.6°C 56.4°F13.6°C 68% 6.0 mph ESE9.7 kmh ESE 9.8 mph15.8 kmh 30.59 in1035.9 mb 0.00 in0.0 mm 0.00 in0.0 mm 0.00 in0.0 mm
04:30 AM 67.1°F19.5°C 56.2°F13.4°C 68% 3.8 mph ESE6.1 kmh ESE 9.2 mph14.8 kmh 30.59 in1035.9 mb 0.00 in0.0 mm 0.00 in0.0 mm 0.00 in0.0 mm
04:35 AM 67.1°F19.5°C 56.2°F13.4°C 68% 6.0 mph NE9.7 kmh NE 6.9 mph11.1 kmh 30.15 in1021.0 mb 0.00 in0.0 mm 0.00 in0.0 mm 0.00 in0.0 mm
04:45 AM 66.9°F19.4°C 56.4°F13.6°C 69% 4.5 mph E7.2 kmh E 7.6 mph12.2 kmh 30.59 in1035.9 mb 0.00 in0.0 mm 0.00 in0.0 mm 0.00 in0.0 mm
05:00 AM 66.9°F19.4°C 56.4°F13.6°C 69% 5.4 mph ESE8.7 kmh ESE 8.3 mph13.4 kmh 30.59 in1035.9 mb 0.00 in0.0 mm 0.00 in0.0 mm 0.00 in0.0 mm
05:05 AM 66.9°F19.4°C 56.4°F13.6°C 69% 6.9 mph SE11.1 kmh SE 8.3 mph13.4 kmh 30.14 in1020.7 mb 0.00 in0.0 mm 0.00 in0.0 mm 0.00 in0.0 mm
05:15 AM 67.1°F19.5°C 56.6°F13.7°C 69% 5.4 mph E8.7 kmh E 8.3 mph13.4 kmh 30.59 in1035.9 mb 0.00 in0.0 mm 0.00 in0.0 mm 0.00 in0.0 mm
05:30 AM 67.3°F19.6°C 56.8°F13.8°C 69% 4.5 mph SE7.2 kmh SE 9.2 mph14.8 kmh 30.59 in1035.9 mb 0.00 in0.0 mm 0.00 in0.0 mm 0.00 in0.0 mm
05:35 AM 67.3°F19.6°C 56.4°F13.6°C 68% 5.4 mph SE8.7 kmh SE 6.9 mph11.1 kmh 30.14 in1020.7 mb 0.00 in0.0 mm 0.00 in0.0 mm 0.00 in0.0 mm
05:45 AM 67.5°F19.7°C 56.9°F13.8°C 69% 3.1 mph SSE5.0 kmh SSE 7.6 mph12.2 kmh 30.59 in1035.9 mb 0.00 in0.0 mm 0.00 in0.0 mm 0.00 in0.0 mm
06:00 AM 67.8°F19.9°C 57.3°F14.1°C 69% 5.4 mph SE8.7 kmh SE 9.2 mph14.8 kmh 30.60 in1036.2 mb 0.00 in0.0 mm 0.00 in0.0 mm 0.00 in0.0 mm
06:05 AM 67.6°F19.8°C 57.1°F13.9°C 69% 4.5 mph SE7.2 kmh SE 5.4 mph8.7 kmh 30.15 in1021.0 mb 0.00 in0.0 mm 0.00 in0.0 mm 0.00 in0.0 mm
06:15 AM 68.4°F20.2°C 57.4°F14.1°C 68% 7.6 mph SE12.2 kmh SE 10.7 mph17.2 kmh 30.60 in1036.2 mb 0.00 in0.0 mm 0.00 in0.0 mm 0.00 in0.0 mm
06:30 AM 68.9°F20.5°C 57.5°F14.2°C 67% 9.2 mph SE14.8 kmh SE 13.6 mph21.9 kmh 30.59 in1035.9 mb 0.00 in0.0 mm 0.00 in0.0 mm 0.00 in0.0 mm
06:35 AM 68.9°F20.5°C 57.5°F14.2°C 67% 9.2 mph SE14.8 kmh SE 11.4 mph18.3 kmh 30.14 in1020.7 mb 0.00 in0.0 mm 0.00 in0.0 mm 0.00 in0.0 mm
06:45 AM 69.8°F21.0°C 57.5°F14.2°C 65% 6.9 mph SE11.1 kmh SE 13.6 mph21.9 kmh 30.59 in1035.9 mb 0.00 in0.0 mm 0.00 in0.0 mm 0.00 in0.0 mm
07:00 AM 70.3°F21.3°C 58.0°F14.4°C 65% 9.2 mph SE14.8 kmh SE 11.4 mph18.3 kmh 30.59 in1035.9 mb 0.00 in0.0 mm 0.00 in0.0 mm 0.00 in0.0 mm
07:05 AM 70.3°F21.3°C 58.0°F14.4°C 65% 9.2 mph SE14.8 kmh SE 11.4 mph18.3 kmh 30.14 in1020.7 mb 0.00 in0.0 mm 0.00 in0.0 mm 0.00 in0.0 mm
07:15 AM 71.8°F22.1°C 58.5°F14.7°C 63% 5.4 mph SSE8.7 kmh SSE 10.7 mph17.2 kmh 30.59 in1035.9 mb 0.00 in0.0 mm 0.00 in0.0 mm 0.00 in0.0 mm
07:30 AM 72.9°F22.7°C 57.7°F14.3°C 59% 1.6 mph SSE2.6 kmh SSE 11.4 mph18.3 kmh 30.59 in1035.9 mb 0.00 in0.0 mm 0.00 in0.0 mm 0.00 in0.0 mm
07:35 AM 72.7°F22.6°C 57.5°F14.2°C 59% 6.9 mph S11.1 kmh S 8.3 mph13.4 kmh 30.14 in1020.7 mb 0.00 in0.0 mm 0.00 in0.0 mm 0.00 in0.0 mm
07:45 AM 73.9°F23.3°C 57.7°F14.3°C 57% 9.8 mph SE15.8 kmh SE 12.1 mph19.5 kmh 30.58 in1035.6 mb 0.00 in0.0 mm 0.00 in0.0 mm 0.00 in0.0 mm
08:00 AM 74.8°F23.8°C 57.6°F14.2°C 55% 4.5 mph SE7.2 kmh SE 13.0 mph20.9 kmh 30.58 in1035.6 mb 0.00 in0.0 mm 0.00 in0.0 mm 0.00 in0.0 mm
08:05 AM 74.7°F23.7°C 57.4°F14.1°C 55% 8.3 mph SE13.4 kmh SE 10.7 mph17.2 kmh 30.13 in1020.3 mb 0.00 in0.0 mm 0.00 in0.0 mm 0.00 in0.0 mm
08:15 AM 75.9°F24.4°C 57.6°F14.2°C 53% 6.9 mph SE11.1 kmh SE 13.0 mph20.9 kmh 30.57 in1035.2 mb 0.00 in0.0 mm 0.00 in0.0 mm 0.00 in0.0 mm
08:30 AM 77.0°F25.0°C 57.5°F14.2°C 51% 10.7 mph ESE17.2 kmh ESE 15.9 mph25.6 kmh 30.57 in1035.2 mb 0.00 in0.0 mm 0.00 in0.0 mm 0.00 in0.0 mm
08:35 AM 76.8°F24.9°C 57.3°F14.1°C 51% 11.4 mph E18.3 kmh E 15.2 mph24.5 kmh 30.13 in1020.3 mb 0.00 in0.0 mm 0.00 in0.0 mm 0.00 in0.0 mm
08:45 AM 78.1°F25.6°C 56.8°F13.8°C 48% 6.9 mph SE11.1 kmh SE 15.9 mph25.6 kmh 30.57 in1035.2 mb 0.00 in0.0 mm 0.00 in0.0 mm 0.00 in0.0 mm
09:00 AM 79.5°F26.4°C 56.9°F13.8°C 46% 10.7 mph SSE17.2 kmh SSE 15.2 mph24.5 kmh 30.57 in1035.2 mb 0.00 in0.0 mm 0.00 in0.0 mm 0.00 in0.0 mm
09:05 AM 79.3°F26.3°C 57.4°F14.1°C 47% 7.6 mph SW12.2 kmh SW 12.1 mph19.5 kmh 30.12 in1020.0 mb 0.00 in0.0 mm 0.00 in0.0 mm 0.00 in0.0 mm
09:15 AM 80.6°F27.0°C 57.9°F14.4°C 46% 7.6 mph SE12.2 kmh SE 14.5 mph23.3 kmh 30.57 in1035.2 mb 0.00 in0.0 mm 0.00 in0.0 mm 0.00 in0.0 mm
09:30 AM 81.9°F27.7°C 55.2°F12.9°C 40% 6.9 mph SE11.1 kmh SE 13.6 mph21.9 kmh 30.56 in1034.9 mb 0.00 in0.0 mm 0.00 in0.0 mm 0.00 in0.0 mm
09:35 AM 81.7°F27.6°C 55.7°F13.2°C 41% 9.8 mph E15.8 kmh E 13.6 mph21.9 kmh 30.13 in1020.3 mb 0.00 in0.0 mm 0.00 in0.0 mm 0.00 in0.0 mm
09:45 AM 82.6°F28.1°C 55.1°F12.8°C 39% 3.8 mph SSE6.1 kmh SSE 17.4 mph28.0 kmh 30.57 in1035.2 mb 0.00 in0.0 mm 0.00 in0.0 mm 0.00 in0.0 mm
10:00 AM 82.8°F28.2°C 55.3°F12.9°C 39% 6.9 mph SSE11.1 kmh SSE 13.0 mph20.9 kmh 30.55 in1034.5 mb 0.00 in0.0 mm 0.00 in0.0 mm 0.00 in0.0 mm
10:05 AM 82.6°F28.1°C 55.1°F12.8°C 39% 7.6 mph E12.2 kmh E 11.4 mph18.3 kmh 30.12 in1020.0 mb 0.00 in0.0 mm 0.00 in0.0 mm 0.00 in0.0 mm
10:15 AM 83.1°F28.4°C 54.9°F12.7°C 38% 9.2 mph SSE14.8 kmh SSE 13.6 mph21.9 kmh 30.56 in1034.9 mb 0.00 in0.0 mm 0.00 in0.0 mm 0.00 in0.0 mm
10:30 AM 83.7°F28.7°C 56.1°F13.4°C 39% 4.5 mph SSE7.2 kmh SSE 14.5 mph23.3 kmh 30.55 in1034.5 mb 0.00 in0.0 mm 0.00 in0.0 mm 0.00 in0.0 mm
10:35 AM 83.7°F28.7°C 55.4°F13.0°C 38% 2.2 mph S3.5 kmh S 4.5 mph7.2 kmh 30.11 in1019.6 mb 0.00 in0.0 mm 0.00 in0.0 mm 0.00 in0.0 mm
10:45 AM 84.2°F29.0°C 56.6°F13.7°C 39% 9.2 mph SSE14.8 kmh SSE 13.6 mph21.9 kmh 30.55 in1034.5 mb 0.00 in0.0 mm 0.00 in0.0 mm 0.00 in0.0 mm
11:00 AM 84.7°F29.3°C 57.7°F14.3°C 40% 6.9 mph S11.1 kmh S 11.4 mph18.3 kmh 30.55 in1034.5 mb 0.00 in0.0 mm 0.00 in0.0 mm 0.00 in0.0 mm
11:05 AM 84.6°F29.2°C 57.6°F14.2°C 40% 7.6 mph SE12.2 kmh SE 9.8 mph15.8 kmh 30.11 in1019.6 mb 0.00 in0.0 mm 0.00 in0.0 mm 0.00 in0.0 mm
11:15 AM 85.3°F29.6°C 58.2°F14.6°C 40% 8.3 mph S13.4 kmh S 12.1 mph19.5 kmh 30.55 in1034.5 mb 0.00 in0.0 mm 0.00 in0.0 mm 0.00 in0.0 mm
11:30 AM 85.6°F29.8°C 58.5°F14.7°C 40% 8.3 mph SSE13.4 kmh SSE 12.1 mph19.5 kmh 30.55 in1034.5 mb 0.00 in0.0 mm 0.00 in0.0 mm 0.00 in0.0 mm
11:35 AM 85.6°F29.8°C 58.5°F14.7°C 40% 6.9 mph S11.1 kmh S 9.8 mph15.8 kmh 30.11 in1019.6 mb 0.00 in0.0 mm 0.00 in0.0 mm 0.00 in0.0 mm
11:45 AM 86.0°F30.0°C 59.6°F15.3°C 41% 4.5 mph SSE7.2 kmh SSE 14.5 mph23.3 kmh 30.55 in1034.5 mb 0.00 in0.0 mm 0.00 in0.0 mm 0.00 in0.0 mm
12:00 PM 86.5°F30.3°C 60.0°F15.6°C 41% 8.3 mph SSE13.4 kmh SSE 11.4 mph18.3 kmh 30.54 in1034.2 mb 0.00 in0.0 mm 0.00 in0.0 mm 0.00 in0.0 mm
12:05 PM 86.5°F30.3°C 60.0°F15.6°C 41% 8.3 mph SE13.4 kmh SE 10.7 mph17.2 kmh 30.09 in1019.0 mb 0.00 in0.0 mm 0.00 in0.0 mm 0.00 in0.0 mm
12:15 PM 86.5°F30.3°C 60.0°F15.6°C 41% 6.0 mph SE9.7 kmh SE 13.6 mph21.9 kmh 30.54 in1034.2 mb 0.00 in0.0 mm 0.00 in0.0 mm 0.00 in0.0 mm
12:30 PM 86.7°F30.4°C 60.2°F15.7°C 41% 3.8 mph S6.1 kmh S 13.6 mph21.9 kmh 30.54 in1034.2 mb 0.00 in0.0 mm 0.00 in0.0 mm 0.00 in0.0 mm
12:35 PM 86.7°F30.4°C 60.2°F15.7°C 41% 8.3 mph SE13.4 kmh SE 11.4 mph18.3 kmh 30.10 in1019.3 mb 0.00 in0.0 mm 0.00 in0.0 mm 0.00 in0.0 mm
12:45 PM 87.4°F30.8°C 60.8°F16.0°C 41% 4.5 mph S7.2 kmh S 13.0 mph20.9 kmh 30.53 in1033.9 mb 0.00 in0.0 mm 0.00 in0.0 mm 0.00 in0.0 mm
01:00 PM 87.4°F30.8°C 60.8°F16.0°C 41% 6.0 mph SSW9.7 kmh SSW 12.1 mph19.5 kmh 30.53 in1033.9 mb 0.00 in0.0 mm 0.00 in0.0 mm 0.00 in0.0 mm
01:05 PM 87.4°F30.8°C 60.8°F16.0°C 41% 6.0 mph SW9.7 kmh SW 8.3 mph13.4 kmh 30.09 in1019.0 mb 0.00 in0.0 mm 0.00 in0.0 mm 0.00 in0.0 mm
01:15 PM 88.2°F31.2°C 60.8°F16.0°C 40% 9.8 mph S15.8 kmh S 13.6 mph21.9 kmh 30.52 in1033.5 mb 0.00 in0.0 mm 0.00 in0.0 mm 0.00 in0.0 mm
01:30 PM 88.5°F31.4°C 61.1°F16.2°C 40% 5.4 mph SSE8.7 kmh SSE 9.2 mph14.8 kmh 30.52 in1033.5 mb 0.00 in0.0 mm 0.00 in0.0 mm 0.00 in0.0 mm
01:35 PM 88.3°F31.3°C 61.0°F16.1°C 40% 4.5 mph S7.2 kmh S 6.9 mph11.1 kmh 30.07 in1018.3 mb 0.00 in0.0 mm 0.00 in0.0 mm 0.00 in0.0 mm
01:45 PM 88.5°F31.4°C 61.1°F16.2°C 40% 2.2 mph SSE3.5 kmh SSE 10.7 mph17.2 kmh 30.51 in1033.2 mb 0.00 in0.0 mm 0.00 in0.0 mm 0.00 in0.0 mm
02:00 PM 88.7°F31.5°C 61.3°F16.3°C 40% 9.2 mph S14.8 kmh S 11.4 mph18.3 kmh 30.51 in1033.2 mb 0.00 in0.0 mm 0.00 in0.0 mm 0.00 in0.0 mm
02:05 PM 88.7°F31.5°C 61.3°F16.3°C 40% 5.4 mph S8.7 kmh S 9.8 mph15.8 kmh 30.07 in1018.3 mb 0.00 in0.0 mm 0.00 in0.0 mm 0.00 in0.0 mm
02:15 PM 88.7°F31.5°C 61.3°F16.3°C 40% 6.9 mph SSE11.1 kmh SSE 8.3 mph13.4 kmh 30.51 in1033.2 mb 0.00 in0.0 mm 0.00 in0.0 mm 0.00 in0.0 mm
02:30 PM 89.1°F31.7°C 61.6°F16.4°C 40% 7.6 mph SE12.2 kmh SE 12.1 mph19.5 kmh 30.50 in1032.8 mb 0.00 in0.0 mm 0.00 in0.0 mm 0.00 in0.0 mm
02:35 PM 88.9°F31.6°C 61.4°F16.3°C 40% 5.4 mph SE8.7 kmh SE 6.9 mph11.1 kmh 30.07 in1018.3 mb 0.00 in0.0 mm 0.00 in0.0 mm 0.00 in0.0 mm
02:45 PM 89.2°F31.8°C 61.8°F16.6°C 40% 4.5 mph SE7.2 kmh SE 10.7 mph17.2 kmh 30.50 in1032.8 mb 0.00 in0.0 mm 0.00 in0.0 mm 0.00 in0.0 mm
03:00 PM 89.4°F31.9°C 61.2°F16.2°C 39% 8.3 mph SE13.4 kmh SE 13.0 mph20.9 kmh 30.50 in1032.8 mb 0.00 in0.0 mm 0.00 in0.0 mm 0.00 in0.0 mm
03:05 PM 89.6°F32.0°C 61.4°F16.3°C 39% 8.3 mph SE13.4 kmh SE 13.0 mph20.9 kmh 30.06 in1017.9 mb 0.00 in0.0 mm 0.00 in0.0 mm 0.00 in0.0 mm
03:15 PM 89.4°F31.9°C 61.9°F16.6°C 40% 4.5 mph SSE7.2 kmh SSE 10.7 mph17.2 kmh 30.49 in1032.5 mb 0.00 in0.0 mm 0.00 in0.0 mm 0.00 in0.0 mm
03:30 PM 89.1°F31.7°C 61.6°F16.4°C 40% 7.6 mph SSE12.2 kmh SSE 12.1 mph19.5 kmh 30.50 in1032.8 mb 0.00 in0.0 mm 0.00 in0.0 mm 0.00 in0.0 mm
03:35 PM 89.1°F31.7°C 61.6°F16.4°C 40% 7.6 mph W12.2 kmh W 9.8 mph15.8 kmh 30.05 in1017.6 mb 0.00 in0.0 mm 0.00 in0.0 mm 0.00 in0.0 mm
03:45 PM 89.1°F31.7°C 60.9°F16.1°C 39% 6.0 mph SSE9.7 kmh SSE 12.1 mph19.5 kmh 30.49 in1032.5 mb 0.00 in0.0 mm 0.00 in0.0 mm 0.00 in0.0 mm
04:00 PM 88.5°F31.4°C 61.1°F16.2°C 40% 8.3 mph SSE13.4 kmh SSE 12.1 mph19.5 kmh 30.49 in1032.5 mb 0.00 in0.0 mm 0.00 in0.0 mm 0.00 in0.0 mm
04:05 PM 88.5°F31.4°C 61.1°F16.2°C 40% 8.3 mph SE13.4 kmh SE 11.4 mph18.3 kmh 30.04 in1017.3 mb 0.00 in0.0 mm 0.00 in0.0 mm 0.00 in0.0 mm
04:15 PM 88.2°F31.2°C 60.8°F16.0°C 40% 6.9 mph SSE11.1 kmh SSE 12.1 mph19.5 kmh 30.48 in1032.2 mb 0.00 in0.0 mm 0.00 in0.0 mm 0.00 in0.0 mm
04:30 PM 88.0°F31.1°C 60.6°F15.9°C 40% 5.4 mph SSE8.7 kmh SSE 9.8 mph15.8 kmh 30.48 in1032.2 mb 0.00 in0.0 mm 0.00 in0.0 mm 0.00 in0.0 mm
04:35 PM 88.0°F31.1°C 60.6°F15.9°C 40% 6.0 mph SE9.7 kmh SE 8.3 mph13.4 kmh 30.04 in1017.3 mb 0.00 in0.0 mm 0.00 in0.0 mm 0.00 in0.0 mm
04:45 PM 87.3°F30.7°C 60.7°F15.9°C 41% 5.4 mph S8.7 kmh S 10.7 mph17.2 kmh 30.48 in1032.2 mb 0.00 in0.0 mm 0.00 in0.0 mm 0.00 in0.0 mm
05:00 PM 85.8°F29.9°C 60.1°F15.6°C 42% 2.2 mph SSE3.5 kmh SSE 10.7 mph17.2 kmh 30.48 in1032.2 mb 0.00 in0.0 mm 0.00 in0.0 mm 0.00 in0.0 mm
05:05 PM 86.2°F30.1°C 59.7°F15.4°C 41% 3.8 mph SE6.1 kmh SE 5.4 mph8.7 kmh 30.03 in1016.9 mb 0.00 in0.0 mm 0.00 in0.0 mm 0.00 in0.0 mm
05:15 PM 84.6°F29.2°C 59.6°F15.3°C 43% 2.2 mph SE3.5 kmh SE 5.4 mph8.7 kmh 30.48 in1032.2 mb 0.00 in0.0 mm 0.00 in0.0 mm 0.00 in0.0 mm
05:30 PM 83.8°F28.8°C 59.6°F15.3°C 44% 2.2 mph SSE3.5 kmh SSE 7.6 mph12.2 kmh 30.48 in1032.2 mb 0.00 in0.0 mm 0.00 in0.0 mm 0.00 in0.0 mm
05:35 PM 84.0°F28.9°C 59.1°F15.1°C 43% 3.1 mph SE5.0 kmh SE 3.8 mph6.1 kmh 30.04 in1017.3 mb 0.00 in0.0 mm 0.00 in0.0 mm 0.00 in0.0 mm
05:45 PM 83.7°F28.7°C 59.4°F15.2°C 44% 1.6 mph SE2.6 kmh SE 6.9 mph11.1 kmh 30.48 in1032.2 mb 0.00 in0.0 mm 0.00 in0.0 mm 0.00 in0.0 mm
06:00 PM 83.5°F28.6°C 59.3°F15.2°C 44% 2.2 mph SE3.5 kmh SE 6.9 mph11.1 kmh 30.48 in1032.2 mb 0.00 in0.0 mm 0.00 in0.0 mm 0.00 in0.0 mm
06:05 PM 83.5°F28.6°C 59.3°F15.2°C 44% 5.4 mph E8.7 kmh E 6.9 mph11.1 kmh 30.04 in1017.3 mb 0.00 in0.0 mm 0.00 in0.0 mm 0.00 in0.0 mm
06:15 PM 83.1°F28.4°C 58.9°F14.9°C 44% 1.6 mph SSE2.6 kmh SSE 6.9 mph11.1 kmh 30.48 in1032.2 mb 0.00 in0.0 mm 0.00 in0.0 mm 0.00 in0.0 mm
06:30 PM 82.4°F28.0°C 58.9°F14.9°C 45% 3.8 mph S6.1 kmh S 5.4 mph8.7 kmh 30.48 in1032.2 mb 0.00 in0.0 mm 0.00 in0.0 mm 0.00 in0.0 mm
06:35 PM 82.6°F28.1°C 59.1°F15.1°C 45% 1.6 mph SE2.6 kmh SE 3.1 mph5.0 kmh 30.04 in1017.3 mb 0.00 in0.0 mm 0.00 in0.0 mm 0.00 in0.0 mm
06:45 PM 81.5°F27.5°C 58.7°F14.8°C 46% 2.2 mph SE3.5 kmh SE 5.4 mph8.7 kmh 30.48 in1032.2 mb 0.00 in0.0 mm 0.00 in0.0 mm 0.00 in0.0 mm
07:00 PM 81.0°F27.2°C 61.1°F16.2°C 51% 0.7 mph SE1.1 kmh SE 4.5 mph7.2 kmh 30.48 in1032.2 mb 0.00 in0.0 mm 0.00 in0.0 mm 0.00 in0.0 mm
07:05 PM 81.0°F27.2°C 61.1°F16.2°C 51% 0.7 mph SE1.1 kmh SE 1.6 mph2.6 kmh 30.04 in1017.3 mb 0.00 in0.0 mm 0.00 in0.0 mm 0.00 in0.0 mm
07:15 PM 79.7°F26.5°C 60.5°F15.8°C 52% 2.2 mph SSE3.5 kmh SSE 3.8 mph6.1 kmh 30.48 in1032.2 mb 0.00 in0.0 mm 0.00 in0.0 mm 0.00 in0.0 mm
07:30 PM 79.0°F26.1°C 60.4°F15.8°C 53% 1.6 mph SSE2.6 kmh SSE 4.5 mph7.2 kmh 30.48 in1032.2 mb 0.00 in0.0 mm 0.00 in0.0 mm 0.00 in0.0 mm
07:35 PM 79.2°F26.2°C 60.6°F15.9°C 53% 0.7 mph SE1.1 kmh SE 2.2 mph3.5 kmh 30.05 in1017.6 mb 0.00 in0.0 mm 0.00 in0.0 mm 0.00 in0.0 mm
07:45 PM 78.3°F25.7°C 60.8°F16.0°C 55% 1.6 mph S2.6 kmh S 4.5 mph7.2 kmh 30.49 in1032.5 mb 0.00 in0.0 mm 0.00 in0.0 mm 0.00 in0.0 mm
08:00 PM 78.8°F26.0°C 61.8°F16.6°C 56% 5.4 mph S8.7 kmh S 9.8 mph15.8 kmh 30.49 in1032.5 mb 0.00 in0.0 mm 0.00 in0.0 mm 0.00 in0.0 mm
08:05 PM 78.6°F25.9°C 61.6°F16.4°C 56% 6.0 mph SE9.7 kmh SE 9.2 mph14.8 kmh 30.05 in1017.6 mb 0.00 in0.0 mm 0.00 in0.0 mm 0.00 in0.0 mm
08:15 PM 77.7°F25.4°C 63.2°F17.3°C 61% 6.0 mph SSW9.7 kmh SSW 14.5 mph23.3 kmh 30.49 in1032.5 mb 0.00 in0.0 mm 0.00 in0.0 mm 0.00 in0.0 mm
08:30 PM 75.9°F24.4°C 63.3°F17.4°C 65% 9.2 mph SSW14.8 kmh SSW 13.0 mph20.9 kmh 30.49 in1032.5 mb 0.00 in0.0 mm 0.00 in0.0 mm 0.00 in0.0 mm
08:35 PM 76.1°F24.5°C 63.5°F17.5°C 65% 3.8 mph S6.1 kmh S 6.0 mph9.7 kmh 30.05 in1017.6 mb 0.00 in0.0 mm 0.00 in0.0 mm 0.00 in0.0 mm
08:45 PM 73.9°F23.3°C 61.9°F16.6°C 66% 11.4 mph S18.3 kmh S 16.8 mph27.0 kmh 30.50 in1032.8 mb 0.00 in0.0 mm 0.00 in0.0 mm 0.00 in0.0 mm
09:00 PM 72.3°F22.4°C 62.0°F16.7°C 70% 4.5 mph SSW7.2 kmh SSW 14.5 mph23.3 kmh 30.50 in1032.8 mb 0.00 in0.0 mm 0.00 in0.0 mm 0.00 in0.0 mm
09:05 PM 72.5°F22.5°C 60.5°F15.8°C 66% 6.9 mph S11.1 kmh S 14.5 mph23.3 kmh 30.06 in1017.9 mb 0.00 in0.0 mm 0.00 in0.0 mm 0.00 in0.0 mm
09:15 PM 71.1°F21.7°C 62.0°F16.7°C 73% 3.8 mph S6.1 kmh S 7.6 mph12.2 kmh 30.51 in1033.2 mb 0.00 in0.0 mm 0.00 in0.0 mm 0.00 in0.0 mm
09:30 PM 70.5°F21.4°C 63.7°F17.6°C 79% 3.1 mph SW5.0 kmh SW 13.6 mph21.9 kmh 30.50 in1032.8 mb 0.01 in0.3 mm 0.04 in1.0 mm 0.01 in0.3 mm
09:35 PM 70.5°F21.4°C 63.7°F17.6°C 79% 3.1 mph S5.0 kmh S 5.4 mph8.7 kmh 30.06 in1017.9 mb 0.01 in0.3 mm 0.00 in0.0 mm 0.01 in0.3 mm
09:45 PM 70.7°F21.5°C 63.9°F17.7°C 79% 0.7 mph SSW1.1 kmh SSW 7.6 mph12.2 kmh 30.49 in1032.5 mb 0.02 in0.5 mm 0.06 in1.5 mm 0.02 in0.5 mm
10:00 PM 70.0°F21.1°C 63.9°F17.7°C 81% 2.2 mph WSW3.5 kmh WSW 3.8 mph6.1 kmh 30.50 in1032.8 mb 0.04 in1.0 mm 0.03 in0.8 mm 0.04 in1.0 mm
10:05 PM 70.2°F21.2°C 63.7°F17.6°C 80% 1.6 mph W2.6 kmh W 2.2 mph3.5 kmh 30.04 in1017.3 mb 0.04 in1.0 mm 0.00 in0.0 mm 0.04 in1.0 mm
10:15 PM 69.6°F20.9°C 64.2°F17.9°C 83% Calm Calm 2.2 mph3.5 kmh 30.48 in1032.2 mb 0.05 in1.3 mm 0.06 in1.5 mm 0.05 in1.3 mm
10:30 PM 69.3°F20.7°C 64.2°F17.9°C 84% 3.8 mph NW6.1 kmh NW 4.5 mph7.2 kmh 30.49 in1032.5 mb 0.05 in1.3 mm 0.00 in0.0 mm 0.06 in1.5 mm
10:35 PM 69.3°F20.7°C 64.2°F17.9°C 84% 3.1 mph NW5.0 kmh NW 3.8 mph6.1 kmh 30.05 in1017.6 mb 0.05 in1.3 mm 0.00 in0.0 mm 0.06 in1.5 mm
10:45 PM 69.1°F20.6°C 64.7°F18.2°C 86% 3.1 mph NE5.0 kmh NE 7.6 mph12.2 kmh 30.49 in1032.5 mb 0.04 in1.0 mm 0.00 in0.0 mm 0.06 in1.5 mm
11:00 PM 68.9°F20.5°C 64.9°F18.3°C 87% 2.2 mph E3.5 kmh E 13.6 mph21.9 kmh 30.49 in1032.5 mb 0.02 in0.5 mm 0.00 in0.0 mm 0.05 in1.3 mm
11:05 PM 68.9°F20.5°C 64.9°F18.3°C 87% 3.1 mph E5.0 kmh E 4.5 mph7.2 kmh 30.05 in1017.6 mb 0.02 in0.5 mm 0.00 in0.0 mm 0.05 in1.3 mm
11:15 PM 68.9°F20.5°C 65.2°F18.4°C 88% 3.1 mph E5.0 kmh E 4.5 mph7.2 kmh 30.50 in1032.8 mb 0.01 in0.3 mm 0.00 in0.0 mm 0.05 in1.3 mm
11:30 PM 68.9°F20.5°C 65.5°F18.6°C 89% 4.5 mph SE7.2 kmh SE 6.0 mph9.7 kmh 30.49 in1032.5 mb 0.00 in0.0 mm 0.00 in0.0 mm 0.05 in1.3 mm
11:35 PM 68.9°F20.5°C 65.5°F18.6°C 89% 2.2 mph SE3.5 kmh SE 3.8 mph6.1 kmh 30.06 in1017.9 mb 0.00 in0.0 mm 0.00 in0.0 mm 0.05 in1.3 mm
11:45 PM 68.9°F20.5°C 65.5°F18.6°C 89% 1.6 mph SE2.6 kmh SE 6.0 mph9.7 kmh 30.49 in1032.5 mb 0.00 in0.0 mm 0.00 in0.0 mm 0.05 in1.3 mm